Merom, Indiana
Current Conditions -  °F | °C
As of 1:55 PM on Thursday 23 Oct 2014 (Local Time) from KRSV Reporting Station
Clear Clear  
Wind Chill: 60°   Ceiling: Unl
Heat Index: 60°   Visibility: 10mi
Dew Point: 44°   Wind: 6mph
Humidity: 54%   Direction: 140°SE
Pressure: 30.21"   Gusts: NA
Location:  39.06°N, 87.57°W
Report Text: KRSV 231755Z AUTO 14005KT 10SM CLR 16/07 A3021 RMK AO2 T01580066 10159 20006
Loading
Personal Weather Stations






























Interactive Weather Map
Tropical Storm Tracking
New forecast layout! Learn more

10-Day Weather Forecast

Advertisements
Track Severe Weather on mobile